createdAt,value
2022-07-25T00:08:31.226Z,11.75
2022-07-25T00:18:35.711Z,11.30
2022-07-25T00:28:38.715Z,11.77
2022-07-25T00:38:43.119Z,11.63
2022-07-25T00:48:46.432Z,11.52
2022-07-25T00:58:51.041Z,11.20
2022-07-25T01:08:54.685Z,13.05
2022-07-25T01:18:59.151Z,12.52
2022-07-25T01:29:03.603Z,12.57
2022-07-25T01:39:06.702Z,12.57
2022-07-25T01:49:11.227Z,12.50
2022-07-25T01:59:14.837Z,13.18
2022-07-25T02:09:19.421Z,13.25
2022-07-25T02:19:22.489Z,14.35
2022-07-25T02:29:26.876Z,13.93
2022-07-25T02:39:29.938Z,14.52
2022-07-25T02:49:34.390Z,15.45
2022-07-25T02:59:37.447Z,14.68
2022-07-25T03:09:42.040Z,14.82
2022-07-25T03:19:45.476Z,14.07
2022-07-25T03:29:49.985Z,13.43
2022-07-25T03:39:53.037Z,14.02
2022-07-25T03:49:57.527Z,13.15
2022-07-25T04:00:00.606Z,13.63
2022-07-25T04:10:05.306Z,13.35
2022-07-25T04:20:09.453Z,14.32
2022-07-25T04:30:24.573Z,14.10
2022-07-25T04:40:27.933Z,13.45
2022-07-25T04:50:32.515Z,14.52
2022-07-25T05:00:35.716Z,14.02
2022-07-25T05:10:40.281Z,14.35
2022-07-25T05:20:43.315Z,15.38
2022-07-25T05:30:47.814Z,14.25
2022-07-25T05:40:52.119Z,14.55
2022-07-25T05:50:56.761Z,14.82
2022-07-25T06:01:00.116Z,14.98
2022-07-25T06:11:04.974Z,13.82
2022-07-25T06:21:08.188Z,14.00
2022-07-25T06:31:12.638Z,13.82
2022-07-25T06:41:16.697Z,13.50
2022-07-25T06:51:22.907Z,12.32
2022-07-25T07:01:26.000Z,12.32
2022-07-25T07:11:30.497Z,10.90
2022-07-25T07:21:33.583Z,10.15
2022-07-25T07:31:38.019Z,10.50
2022-07-25T07:41:41.114Z,10.70
2022-07-25T07:51:45.527Z,11.20
2022-07-25T08:01:48.608Z,10.95
2022-07-25T08:11:53.153Z,10.23
2022-07-25T08:21:56.215Z,10.98
2022-07-25T08:32:00.632Z,10.75
2022-07-25T08:42:10.634Z,10.20
2022-07-25T08:52:16.252Z,10.48
2022-07-25T09:02:19.427Z,11.18
2022-07-25T09:12:28.997Z,21.30
2022-07-25T09:22:33.750Z,11.10
2022-07-25T09:32:39.458Z,10.30
2022-07-25T09:42:46.101Z,10.23
2022-07-25T09:52:52.298Z,9.82
2022-07-25T10:03:17.758Z,11.40
2022-07-25T10:13:32.504Z,9.18
2022-07-25T10:23:35.589Z,8.02
2022-07-25T10:33:43.777Z,8.90
2022-07-25T10:43:48.802Z,7.88
2022-07-25T10:53:53.385Z,6.13
2022-07-25T11:03:57.900Z,5.75
2022-07-25T11:14:02.494Z,6.60
2022-07-25T11:24:05.839Z,6.00
2022-07-25T11:34:10.356Z,5.40
2022-07-25T11:44:13.663Z,5.78
2022-07-25T11:54:19.287Z,6.47
2022-07-25T12:04:22.352Z,6.20
2022-07-25T12:14:26.742Z,5.82
2022-07-25T12:24:29.816Z,6.50
2022-07-25T12:34:34.472Z,6.75
2022-07-25T12:44:37.501Z,6.43
2022-07-25T12:54:41.888Z,6.10
2022-07-25T13:04:45.263Z,5.20
2022-07-25T13:14:49.696Z,6.22
2022-07-25T13:24:52.789Z,6.65
2022-07-25T13:34:57.222Z,6.50
2022-07-25T13:45:00.625Z,6.50
2022-07-25T13:55:05.641Z,7.10
2022-07-25T14:05:09.421Z,6.63
2022-07-25T14:15:13.921Z,6.65
2022-07-25T14:25:16.969Z,6.60
2022-07-25T14:35:21.528Z,7.50
2022-07-25T14:45:24.600Z,7.65
2022-07-25T14:55:29.104Z,7.15
2022-07-25T15:05:32.158Z,7.32
2022-07-25T15:15:36.587Z,7.50
2022-07-25T15:36:04.566Z,6.53
2022-07-25T15:46:11.598Z,7.47
2022-07-25T15:56:17.322Z,7.00
2022-07-25T16:06:20.814Z,6.28
2022-07-25T16:16:25.736Z,10.02
2022-07-25T16:26:29.161Z,7.50
2022-07-25T16:36:34.846Z,6.95
2022-07-25T16:46:38.059Z,6.90
2022-07-25T16:56:42.473Z,7.80
2022-07-25T17:06:45.614Z,6.70
2022-07-25T17:16:50.141Z,6.97
2022-07-25T17:26:53.205Z,7.65
2022-07-25T17:37:02.598Z,9.32
2022-07-25T17:47:05.750Z,6.07
2022-07-25T17:57:10.233Z,7.15
2022-07-25T18:07:13.341Z,6.10
2022-07-25T18:17:17.804Z,6.55
2022-07-25T18:27:20.922Z,6.53
2022-07-25T18:37:25.635Z,7.63
2022-07-25T18:47:32.131Z,7.07
2022-07-25T18:57:37.030Z,6.85
2022-07-25T19:07:40.760Z,6.70
2022-07-25T19:17:45.243Z,6.15
2022-07-25T19:27:48.624Z,6.47
2022-07-25T19:37:53.059Z,6.50
2022-07-25T19:47:56.180Z,7.28
2022-07-25T19:58:00.579Z,6.50
2022-07-25T20:08:03.692Z,7.13
2022-07-25T20:18:08.244Z,6.40
2022-07-25T20:28:11.314Z,8.57
2022-07-25T20:38:16.139Z,11.00
2022-07-25T20:48:19.264Z,6.75
2022-07-25T20:58:23.725Z,5.95
2022-07-25T21:08:26.763Z,6.50
2022-07-25T21:18:31.201Z,6.72
2022-07-25T21:28:34.323Z,6.72
2022-07-25T21:38:38.911Z,5.30
2022-07-25T21:48:59.402Z,7.18
2022-07-25T21:59:04.100Z,5.78
2022-07-25T22:09:08.633Z,5.43
2022-07-25T22:19:13.560Z,5.00
2022-07-25T22:29:16.656Z,3.42
2022-07-25T22:39:21.084Z,5.90
2022-07-25T22:49:25.221Z,4.07
2022-07-25T22:59:29.776Z,3.58
2022-07-25T23:09:36.490Z,4.32
2022-07-25T23:19:41.182Z,5.35
2022-07-25T23:29:44.405Z,4.57
2022-07-25T23:39:48.849Z,5.03
2022-07-25T23:49:51.916Z,5.63
2022-07-25T23:59:56.316Z,5.68
